createdAt,value
2022-11-07T00:00:50.286Z,1.40
2022-11-07T00:01:52.480Z,1.60
2022-11-07T00:02:54.634Z,1.42
2022-11-07T00:03:56.960Z,1.30
2022-11-07T00:04:58.724Z,1.60
2022-11-07T00:06:00.499Z,1.50
2022-11-07T00:07:02.767Z,1.70
2022-11-07T00:08:04.875Z,1.77
2022-11-07T00:09:06.653Z,1.60
2022-11-07T00:10:08.730Z,1.58
2022-11-07T00:11:10.502Z,2.15
2022-11-07T00:12:12.270Z,1.38
2022-11-07T00:13:14.388Z,1.65
2022-11-07T00:14:17.485Z,1.50
2022-11-07T00:15:19.354Z,1.40
2022-11-07T00:16:21.209Z,1.30
2022-11-07T00:17:23.019Z,1.05
2022-11-07T00:18:24.936Z,1.35
2022-11-07T00:19:26.850Z,1.30
2022-11-07T00:20:28.636Z,0.90
2022-11-07T00:21:30.582Z,1.20
2022-11-07T00:22:32.474Z,1.30
2022-11-07T00:23:35.027Z,1.40
2022-11-07T00:24:36.891Z,1.30
2022-11-07T00:25:38.766Z,1.17
2022-11-07T00:26:40.817Z,1.10
2022-11-07T00:27:43.350Z,0.80
2022-11-07T00:28:45.449Z,1.13
2022-11-07T00:29:47.462Z,0.85
2022-11-07T00:30:49.225Z,1.00
2022-11-07T00:31:51.122Z,1.10
2022-11-07T00:32:56.379Z,1.00
2022-11-07T00:34:01.710Z,0.90
2022-11-07T00:35:03.669Z,1.23
2022-11-07T00:36:05.804Z,1.10
2022-11-07T00:37:08.033Z,1.20
2022-11-07T00:38:09.933Z,0.77
2022-11-07T00:39:12.157Z,0.90
2022-11-07T00:40:13.939Z,1.50
2022-11-07T00:41:16.426Z,0.75
2022-11-07T00:42:18.258Z,0.88
2022-11-07T00:43:20.061Z,0.88
2022-11-07T00:44:22.841Z,0.75
2022-11-07T00:45:24.704Z,1.00
2022-11-07T00:46:26.552Z,1.85
2022-11-07T00:47:28.401Z,0.60
2022-11-07T00:48:31.276Z,0.90
2022-11-07T00:49:33.198Z,1.13
2022-11-07T00:50:34.957Z,0.70
2022-11-07T00:51:36.995Z,0.70
2022-11-07T00:52:38.801Z,0.77
2022-11-07T00:53:41.104Z,0.80
2022-11-07T00:54:42.938Z,0.80
2022-11-07T00:55:45.035Z,0.75
2022-11-07T00:56:46.801Z,1.10
2022-11-07T00:57:48.614Z,0.57
2022-11-07T00:58:55.067Z,0.70
2022-11-07T00:59:56.877Z,0.55
2022-11-07T01:00:59.477Z,0.55
2022-11-07T01:02:01.378Z,0.60
2022-11-07T01:03:30.004Z,0.65
2022-11-07T01:04:50.684Z,0.80
2022-11-07T01:06:00.705Z,1.48
2022-11-07T01:07:02.801Z,0.65
2022-11-07T01:08:05.522Z,0.57
2022-11-07T01:09:09.366Z,0.80
2022-11-07T01:10:11.143Z,1.10
2022-11-07T01:11:13.397Z,0.90
2022-11-07T01:12:15.172Z,0.93
2022-11-07T01:13:17.382Z,1.15
2022-11-07T01:14:21.693Z,1.17
2022-11-07T01:15:23.548Z,0.93
2022-11-07T01:16:26.896Z,1.20
2022-11-07T01:17:28.770Z,0.65
2022-11-07T01:18:30.653Z,1.27
2022-11-07T01:19:32.427Z,1.05
2022-11-07T01:20:34.252Z,0.82
2022-11-07T01:21:38.573Z,1.38
2022-11-07T01:22:40.500Z,1.20
2022-11-07T01:23:42.815Z,1.23
2022-11-07T01:24:44.877Z,1.27
2022-11-07T01:25:46.637Z,1.60
2022-11-07T01:26:48.979Z,1.20
2022-11-07T01:27:50.786Z,1.65
2022-11-07T01:28:52.658Z,1.02
2022-11-07T01:29:54.436Z,1.40
2022-11-07T01:30:56.213Z,1.30
2022-11-07T01:31:57.976Z,1.00
2022-11-07T01:32:59.805Z,2.22
2022-11-07T01:34:02.453Z,1.40
2022-11-07T01:35:04.621Z,1.27
2022-11-07T01:36:09.477Z,1.20
2022-11-07T01:37:11.573Z,1.15
2022-11-07T01:38:13.416Z,1.20
2022-11-07T01:39:15.520Z,1.33
2022-11-07T01:40:17.393Z,1.23
2022-11-07T01:41:25.647Z,1.20
2022-11-07T01:42:27.636Z,1.10
2022-11-07T01:43:42.873Z,1.27
2022-11-07T01:44:51.465Z,1.23
2022-11-07T01:45:53.297Z,1.10
2022-11-07T01:46:59.396Z,1.38
2022-11-07T01:48:03.239Z,1.20
2022-11-07T01:49:20.296Z,1.08
2022-11-07T01:50:24.876Z,1.10
2022-11-07T01:51:28.601Z,1.30
2022-11-07T01:52:35.587Z,1.30
2022-11-07T01:53:38.163Z,1.30
2022-11-07T01:54:56.009Z,0.95
2022-11-07T01:55:57.878Z,1.38
2022-11-07T01:57:06.929Z,1.02
2022-11-07T01:58:09.605Z,1.20
2022-11-07T01:59:20.005Z,1.00
2022-11-07T02:00:25.211Z,1.10
2022-11-07T02:01:27.344Z,0.80
2022-11-07T02:02:29.348Z,0.93
2022-11-07T02:03:31.302Z,0.93
2022-11-07T02:04:33.158Z,0.80
2022-11-07T02:05:37.689Z,0.70
2022-11-07T02:06:45.546Z,0.80
2022-11-07T02:07:47.518Z,0.80
2022-11-07T02:08:50.774Z,0.80
2022-11-07T02:09:53.828Z,0.90
2022-11-07T02:11:00.148Z,0.63
2022-11-07T02:12:02.781Z,0.82
2022-11-07T02:13:05.306Z,0.93
2022-11-07T02:14:07.119Z,0.90
2022-11-07T02:15:10.274Z,0.70
2022-11-07T02:16:12.110Z,1.08
2022-11-07T02:17:16.206Z,0.90
2022-11-07T02:18:17.992Z,0.95
2022-11-07T02:19:48.080Z,0.70
2022-11-07T02:20:52.369Z,0.70
2022-11-07T02:21:58.072Z,1.10
2022-11-07T02:23:27.488Z,1.00
2022-11-07T02:24:33.513Z,0.98
2022-11-07T02:25:35.881Z,1.20
2022-11-07T02:26:39.669Z,0.98
2022-11-07T02:27:43.255Z,1.10
2022-11-07T02:28:47.997Z,0.88
2022-11-07T02:29:56.105Z,1.10
2022-11-07T02:30:57.781Z,1.58
2022-11-07T02:32:04.512Z,1.05
2022-11-07T02:33:18.264Z,0.90
2022-11-07T02:34:19.948Z,1.13
2022-11-07T02:35:42.588Z,1.17
2022-11-07T02:36:44.457Z,0.90
2022-11-07T02:37:46.226Z,1.42
2022-11-07T02:38:51.772Z,1.02
2022-11-07T02:39:53.796Z,1.00
2022-11-07T02:41:12.224Z,1.00
2022-11-07T02:42:14.157Z,1.20
2022-11-07T02:43:20.088Z,0.90
2022-11-07T02:44:22.597Z,1.13
2022-11-07T02:45:32.731Z,1.23
2022-11-07T02:46:35.357Z,0.88
2022-11-07T02:47:37.106Z,0.75
2022-11-07T02:48:45.361Z,1.00
2022-11-07T02:49:47.045Z,1.00
2022-11-07T02:50:48.758Z,0.93
2022-11-07T02:51:50.578Z,0.80
2022-11-07T02:52:52.316Z,0.93
2022-11-07T02:53:54.556Z,1.00
2022-11-07T02:54:56.367Z,1.00
2022-11-07T02:55:58.090Z,1.08
2022-11-07T02:56:59.761Z,0.85
2022-11-07T02:58:01.522Z,0.80
2022-11-07T02:59:03.385Z,1.58
2022-11-07T03:00:07.645Z,0.80
2022-11-07T03:01:09.563Z,1.05
2022-11-07T03:02:11.451Z,0.90
2022-11-07T03:03:14.192Z,1.13
2022-11-07T03:04:16.168Z,0.90
2022-11-07T03:05:19.574Z,0.70
2022-11-07T03:06:24.677Z,0.80
2022-11-07T03:07:26.633Z,0.88
2022-11-07T03:08:29.158Z,0.80
2022-11-07T03:09:30.896Z,0.88
2022-11-07T03:10:32.794Z,0.90
2022-11-07T03:11:34.509Z,0.98
2022-11-07T03:12:36.869Z,0.63
2022-11-07T03:13:38.968Z,0.70
2022-11-07T03:14:40.673Z,0.80
2022-11-07T03:15:42.422Z,0.88
2022-11-07T03:16:44.184Z,1.55
2022-11-07T03:17:45.906Z,0.90
2022-11-07T03:18:48.109Z,0.70
2022-11-07T03:19:49.873Z,0.70
2022-11-07T03:20:51.607Z,1.23
2022-11-07T03:21:53.347Z,0.70
2022-11-07T03:22:55.102Z,1.38
2022-11-07T03:23:56.780Z,1.75
2022-11-07T03:24:58.516Z,0.80
2022-11-07T03:26:00.489Z,0.80
2022-11-07T03:27:02.222Z,0.80
2022-11-07T03:28:04.679Z,0.55
2022-11-07T03:29:06.681Z,0.82
2022-11-07T03:30:08.956Z,0.90
2022-11-07T03:31:10.777Z,0.50
2022-11-07T03:32:12.696Z,0.85
2022-11-07T03:33:14.606Z,0.85
2022-11-07T03:34:16.505Z,0.80
2022-11-07T03:35:18.254Z,0.73
2022-11-07T03:36:19.916Z,0.70
2022-11-07T03:37:21.580Z,2.05
2022-11-07T03:38:23.429Z,1.85
2022-11-07T03:39:26.113Z,0.70
2022-11-07T03:40:27.890Z,0.65
2022-11-07T03:41:29.609Z,0.65
2022-11-07T03:42:31.418Z,0.50
2022-11-07T03:43:33.240Z,0.70
2022-11-07T03:44:34.917Z,0.82
2022-11-07T03:45:36.629Z,0.63
2022-11-07T03:46:38.361Z,0.50
2022-11-07T03:47:42.122Z,0.40
2022-11-07T03:48:44.090Z,0.35
2022-11-07T03:49:45.794Z,0.50
2022-11-07T03:50:47.549Z,0.30
2022-11-07T03:51:49.279Z,0.63
2022-11-07T03:52:51.080Z,0.30
2022-11-07T03:53:53.022Z,0.32
2022-11-07T03:54:54.963Z,0.30
2022-11-07T03:55:57.058Z,0.20
2022-11-07T03:56:58.816Z,0.60
2022-11-07T03:58:00.647Z,0.60
2022-11-07T03:59:02.623Z,0.20
2022-11-07T04:00:06.013Z,0.52
2022-11-07T04:01:13.703Z,0.28
2022-11-07T04:02:15.622Z,0.20
2022-11-07T04:03:17.822Z,0.38
2022-11-07T04:04:19.681Z,0.35
2022-11-07T04:05:21.519Z,0.30
2022-11-07T04:06:23.730Z,0.43
2022-11-07T04:07:25.453Z,0.25
2022-11-07T04:08:27.256Z,0.17
2022-11-07T04:09:29.094Z,0.38
2022-11-07T04:10:31.053Z,0.45
2022-11-07T04:11:51.218Z,0.55
2022-11-07T04:13:11.381Z,0.52
2022-11-07T04:14:31.720Z,0.20
2022-11-07T04:15:51.929Z,0.20
2022-11-07T04:17:12.148Z,0.30
2022-11-07T04:18:13.914Z,0.20
2022-11-07T04:19:15.732Z,0.25
2022-11-07T04:20:17.457Z,0.10
2022-11-07T04:21:19.119Z,0.35
2022-11-07T04:22:20.793Z,0.30
2022-11-07T04:23:22.502Z,0.30
2022-11-07T04:24:24.162Z,0.30
2022-11-07T04:25:44.409Z,0.20
2022-11-07T04:27:04.706Z,0.22
2022-11-07T04:28:06.386Z,0.20
2022-11-07T04:29:08.182Z,0.20
2022-11-07T04:30:26.865Z,0.20
2022-11-07T04:31:28.821Z,0.30
2022-11-07T04:32:30.567Z,0.30
2022-11-07T04:33:32.389Z,0.22
2022-11-07T04:34:34.173Z,1.10
2022-11-07T04:35:35.848Z,0.50
2022-11-07T04:36:37.517Z,0.13
2022-11-07T04:37:39.312Z,0.82
2022-11-07T04:38:41.003Z,0.95
2022-11-07T04:39:42.662Z,0.20
2022-11-07T04:40:44.446Z,0.20
2022-11-07T04:41:46.122Z,0.20
2022-11-07T04:42:49.097Z,0.20
2022-11-07T04:43:51.357Z,0.10
2022-11-07T04:44:53.017Z,1.17
2022-11-07T04:45:54.784Z,0.10
2022-11-07T04:46:56.453Z,0.30
2022-11-07T04:47:58.165Z,0.20
2022-11-07T04:48:59.867Z,0.10
2022-11-07T04:50:01.646Z,0.30
2022-11-07T04:51:03.421Z,0.20
2022-11-07T04:52:05.182Z,0.17
2022-11-07T04:53:06.882Z,0.22
2022-11-07T04:54:13.384Z,0.10
2022-11-07T04:55:24.783Z,0.20
2022-11-07T04:56:30.479Z,0.25
2022-11-07T04:57:35.039Z,0.30
2022-11-07T04:58:36.897Z,0.30
2022-11-07T04:59:38.700Z,0.20
2022-11-07T05:00:40.384Z,0.32
2022-11-07T05:01:42.149Z,0.57
2022-11-07T05:02:44.074Z,0.30
2022-11-07T05:03:45.798Z,0.17
2022-11-07T05:04:47.502Z,0.13
2022-11-07T05:05:49.187Z,0.70
2022-11-07T05:06:50.890Z,0.63
2022-11-07T05:07:52.618Z,0.15
2022-11-07T05:08:54.385Z,0.38
2022-11-07T05:09:56.201Z,0.22
2022-11-07T05:10:57.952Z,0.13
2022-11-07T05:11:59.854Z,0.10
2022-11-07T05:13:01.615Z,0.20
2022-11-07T05:14:03.293Z,0.10
2022-11-07T05:15:05.457Z,0.20
2022-11-07T05:16:14.968Z,0.20
2022-11-07T05:17:17.191Z,0.30
2022-11-07T05:18:21.207Z,0.40
2022-11-07T05:19:23.042Z,0.30
2022-11-07T05:20:51.148Z,0.10
2022-11-07T05:22:12.831Z,0.28
2022-11-07T05:23:21.453Z,0.13
2022-11-07T05:24:23.217Z,0.32
2022-11-07T05:25:24.994Z,0.10
2022-11-07T05:26:26.733Z,0.88
2022-11-07T05:27:28.553Z,0.75
2022-11-07T05:28:38.642Z,0.50
2022-11-07T05:29:41.433Z,0.40
2022-11-07T05:30:45.171Z,0.10
2022-11-07T05:31:46.950Z,0.40
2022-11-07T05:32:48.659Z,1.20
2022-11-07T05:33:50.364Z,0.22
2022-11-07T05:34:52.105Z,0.50
2022-11-07T05:35:53.835Z,1.17
2022-11-07T05:36:55.565Z,1.25
2022-11-07T05:37:57.418Z,1.60
2022-11-07T05:38:59.129Z,1.35
2022-11-07T05:40:00.824Z,1.08
2022-11-07T05:41:04.410Z,1.17
2022-11-07T05:42:06.574Z,1.50
2022-11-07T05:43:10.798Z,2.38
2022-11-07T05:44:12.475Z,3.55
2022-11-07T05:45:14.790Z,1.55
2022-11-07T05:46:16.451Z,3.92
2022-11-07T05:47:18.203Z,1.92
2022-11-07T05:48:20.184Z,1.92
2022-11-07T05:49:21.846Z,2.90
2022-11-07T05:50:23.530Z,2.08
2022-11-07T05:51:25.286Z,3.70
2022-11-07T05:52:26.989Z,3.60
2022-11-07T05:53:29.430Z,2.30
2022-11-07T05:54:33.126Z,2.72
2022-11-07T05:55:34.929Z,2.58
2022-11-07T05:56:37.632Z,1.83
2022-11-07T05:57:39.397Z,1.55
2022-11-07T05:58:41.135Z,2.63
2022-11-07T05:59:42.884Z,3.70
2022-11-07T06:00:45.044Z,2.75
2022-11-07T06:01:50.951Z,4.53
2022-11-07T06:02:57.616Z,2.03
2022-11-07T06:03:59.493Z,1.42
2022-11-07T06:05:01.253Z,2.47
2022-11-07T06:06:02.939Z,2.33
2022-11-07T06:07:04.740Z,4.13
2022-11-07T06:08:07.973Z,2.95
2022-11-07T06:09:09.823Z,2.28
2022-11-07T06:10:11.565Z,4.63
2022-11-07T06:11:13.309Z,3.75
2022-11-07T06:12:15.110Z,3.10
2022-11-07T06:13:17.402Z,3.45
2022-11-07T06:14:19.427Z,2.00
2022-11-07T06:15:21.090Z,2.30
2022-11-07T06:16:22.866Z,1.83
2022-11-07T06:17:24.620Z,2.80
2022-11-07T06:18:26.340Z,3.15
2022-11-07T06:19:28.026Z,1.00
2022-11-07T06:20:30.718Z,1.50
2022-11-07T06:21:32.502Z,1.83
2022-11-07T06:22:34.213Z,0.90
2022-11-07T06:23:35.960Z,1.00
2022-11-07T06:24:37.621Z,1.95
2022-11-07T06:25:39.666Z,2.58
2022-11-07T06:26:41.920Z,0.63
2022-11-07T06:27:43.689Z,0.70
2022-11-07T06:28:45.457Z,0.80
2022-11-07T06:29:47.134Z,1.15
2022-11-07T06:30:48.836Z,1.00
2022-11-07T06:31:50.518Z,1.48
2022-11-07T06:32:52.257Z,0.30
2022-11-07T06:33:53.934Z,0.80
2022-11-07T06:34:55.654Z,0.40
2022-11-07T06:36:05.470Z,0.52
2022-11-07T06:37:07.579Z,0.40
2022-11-07T06:38:10.803Z,0.50
2022-11-07T06:39:12.679Z,0.57
2022-11-07T06:40:14.449Z,0.60
2022-11-07T06:41:16.279Z,0.82
2022-11-07T06:42:17.971Z,0.60
2022-11-07T06:43:20.400Z,0.50
2022-11-07T06:44:22.461Z,0.90
2022-11-07T06:45:24.203Z,0.40
2022-11-07T06:46:26.165Z,0.57
2022-11-07T06:47:28.678Z,0.40
2022-11-07T06:48:30.764Z,0.40
2022-11-07T06:49:32.600Z,0.93
2022-11-07T06:50:35.159Z,0.30
2022-11-07T06:51:36.996Z,0.63
2022-11-07T06:52:38.699Z,0.55
2022-11-07T06:53:40.748Z,0.50
2022-11-07T06:54:43.388Z,0.80
2022-11-07T06:55:45.047Z,0.35
2022-11-07T06:56:46.766Z,0.65
2022-11-07T06:57:48.689Z,0.90
2022-11-07T06:58:50.828Z,0.43
2022-11-07T06:59:52.594Z,0.40
2022-11-07T07:01:04.039Z,1.40
2022-11-07T07:02:05.891Z,0.50
2022-11-07T07:03:07.699Z,0.70
2022-11-07T07:04:11.497Z,0.63
2022-11-07T07:05:17.118Z,0.57
2022-11-07T07:06:21.767Z,0.60
2022-11-07T07:07:23.590Z,0.57
2022-11-07T07:08:25.293Z,0.50
2022-11-07T07:09:28.411Z,1.35
2022-11-07T07:10:30.327Z,0.55
2022-11-07T07:11:32.185Z,0.60
2022-11-07T07:12:34.767Z,1.25
2022-11-07T07:13:36.942Z,0.60
2022-11-07T07:14:38.634Z,1.15
2022-11-07T07:15:50.515Z,0.95
2022-11-07T07:16:53.069Z,0.50
2022-11-07T07:17:58.653Z,0.40
2022-11-07T07:19:00.448Z,0.50
2022-11-07T07:20:02.206Z,0.52
2022-11-07T07:21:11.395Z,0.47
2022-11-07T07:22:14.090Z,1.40
2022-11-07T07:23:17.817Z,0.60
2022-11-07T07:24:19.790Z,0.50
2022-11-07T07:25:21.774Z,0.52
2022-11-07T07:26:23.436Z,0.88
2022-11-07T07:27:25.138Z,0.75
2022-11-07T07:28:26.818Z,1.02
2022-11-07T07:29:28.497Z,0.60
2022-11-07T07:30:30.465Z,0.60
2022-11-07T07:31:32.431Z,0.65
2022-11-07T07:32:37.090Z,1.52
2022-11-07T07:33:39.119Z,0.85
2022-11-07T07:34:40.918Z,0.63
2022-11-07T07:35:42.733Z,0.75
2022-11-07T07:36:44.393Z,0.55
2022-11-07T07:37:50.760Z,0.60
2022-11-07T07:38:52.743Z,0.98
2022-11-07T07:39:54.500Z,0.40
2022-11-07T07:40:58.094Z,0.60
2022-11-07T07:41:59.782Z,0.63
2022-11-07T07:43:01.481Z,2.20
2022-11-07T07:44:03.269Z,0.85
2022-11-07T07:45:05.334Z,0.90
2022-11-07T07:46:08.449Z,1.52
2022-11-07T07:47:11.533Z,0.77
2022-11-07T07:48:13.476Z,1.45
2022-11-07T07:49:15.477Z,0.50
2022-11-07T07:50:17.226Z,0.60
2022-11-07T07:51:18.894Z,1.55
2022-11-07T07:52:20.688Z,0.63
2022-11-07T07:53:22.463Z,1.90
2022-11-07T07:54:24.209Z,0.30
2022-11-07T07:55:26.057Z,1.30
2022-11-07T07:56:28.044Z,0.50
2022-11-07T07:57:29.877Z,0.47
2022-11-07T07:58:31.550Z,1.35
2022-11-07T07:59:33.424Z,0.95
2022-11-07T08:00:35.864Z,0.52
2022-11-07T08:01:37.862Z,0.70
2022-11-07T08:02:43.620Z,1.42
2022-11-07T08:04:00.818Z,1.42
2022-11-07T08:05:04.050Z,0.60
2022-11-07T08:06:06.093Z,0.50
2022-11-07T08:07:08.222Z,0.55
2022-11-07T08:08:10.056Z,0.70
2022-11-07T08:09:11.830Z,0.40
2022-11-07T08:10:39.619Z,0.70
2022-11-07T08:11:35.658Z,0.63
2022-11-07T08:12:37.330Z,1.23
2022-11-07T08:13:39.142Z,0.75
2022-11-07T08:14:40.788Z,1.05
2022-11-07T08:15:42.494Z,1.00
2022-11-07T08:16:44.305Z,0.60
2022-11-07T08:17:46.489Z,1.27
2022-11-07T08:18:48.253Z,2.15
2022-11-07T08:19:50.083Z,0.82
2022-11-07T08:20:54.014Z,0.50
2022-11-07T08:21:55.720Z,1.13
2022-11-07T08:23:15.767Z,0.90
2022-11-07T08:24:18.425Z,0.43
2022-11-07T08:25:20.116Z,0.68
2022-11-07T08:26:21.835Z,1.20
2022-11-07T08:27:23.605Z,1.10
2022-11-07T08:28:27.573Z,0.47
2022-11-07T08:29:29.321Z,0.60
2022-11-07T08:30:31.847Z,0.85
2022-11-07T08:31:33.587Z,0.80
2022-11-07T08:32:35.387Z,0.52
2022-11-07T08:33:37.293Z,0.45
2022-11-07T08:34:39.286Z,0.60
2022-11-07T08:35:42.705Z,0.70
2022-11-07T08:36:44.659Z,0.60
2022-11-07T08:37:46.336Z,0.43
2022-11-07T08:38:48.084Z,1.23
2022-11-07T08:39:49.866Z,0.43
2022-11-07T08:40:52.330Z,0.70
2022-11-07T08:41:53.994Z,1.13
2022-11-07T08:43:00.577Z,0.43
2022-11-07T08:44:02.241Z,0.55
2022-11-07T08:45:04.358Z,0.77
2022-11-07T08:46:06.282Z,0.63
2022-11-07T08:47:08.742Z,0.82
2022-11-07T08:48:10.689Z,0.60
2022-11-07T08:49:12.481Z,0.68
2022-11-07T08:50:14.234Z,0.70
2022-11-07T08:51:15.990Z,0.57
2022-11-07T08:52:18.051Z,1.80
2022-11-07T08:53:20.390Z,0.75
2022-11-07T08:54:22.378Z,0.50
2022-11-07T08:55:24.263Z,0.45
2022-11-07T08:56:26.058Z,0.63
2022-11-07T08:57:27.742Z,0.85
2022-11-07T08:58:30.312Z,1.60
2022-11-07T08:59:32.263Z,0.47
2022-11-07T09:00:35.144Z,0.88
2022-11-07T09:01:55.931Z,0.55
2022-11-07T09:04:30.258Z,0.38
2022-11-07T09:05:32.381Z,0.60
2022-11-07T09:06:34.056Z,0.40
2022-11-07T09:07:38.721Z,1.05
2022-11-07T09:08:41.153Z,0.80
2022-11-07T09:09:42.890Z,0.50
2022-11-07T09:10:44.662Z,0.47
2022-11-07T09:11:46.348Z,0.38
2022-11-07T09:12:49.871Z,0.22
2022-11-07T09:13:53.237Z,0.28
2022-11-07T09:14:55.021Z,0.75
2022-11-07T09:16:04.750Z,0.57
2022-11-07T09:17:06.483Z,0.40
2022-11-07T09:18:08.211Z,1.02
2022-11-07T09:19:10.025Z,0.30
2022-11-07T09:20:11.879Z,0.30
2022-11-07T09:21:17.660Z,0.55
2022-11-07T09:22:22.562Z,0.30
2022-11-07T09:23:25.275Z,0.20
2022-11-07T09:24:27.090Z,0.68
2022-11-07T09:25:28.836Z,0.60
2022-11-07T09:26:30.822Z,0.30
2022-11-07T09:27:32.518Z,0.47
2022-11-07T09:28:34.832Z,0.30
2022-11-07T09:29:36.602Z,0.95
2022-11-07T09:30:38.334Z,0.20
2022-11-07T09:31:40.102Z,0.77
2022-11-07T09:32:45.757Z,0.30
2022-11-07T09:33:47.811Z,0.30
2022-11-07T09:34:55.957Z,0.22
2022-11-07T09:36:04.845Z,0.22
2022-11-07T09:37:06.710Z,0.40
2022-11-07T09:38:08.469Z,0.30
2022-11-07T09:39:10.160Z,0.30
2022-11-07T09:40:24.669Z,1.00
2022-11-07T09:41:41.686Z,0.30
2022-11-07T09:42:57.249Z,0.30
2022-11-07T09:44:37.455Z,0.30
2022-11-07T09:45:51.681Z,0.30
2022-11-07T09:47:07.010Z,0.30
2022-11-07T09:48:17.494Z,0.20
2022-11-07T09:49:29.564Z,0.28
2022-11-07T09:50:39.256Z,0.30
2022-11-07T09:51:46.731Z,0.90
2022-11-07T09:52:55.074Z,0.77
2022-11-07T09:54:03.315Z,0.40
2022-11-07T09:55:09.338Z,0.40
2022-11-07T09:56:13.197Z,0.43
2022-11-07T09:57:17.667Z,0.50
2022-11-07T09:58:41.962Z,0.40
2022-11-07T09:59:53.222Z,0.65
2022-11-07T10:00:59.929Z,0.30
2022-11-07T10:02:04.147Z,0.47
2022-11-07T10:03:08.728Z,0.30
2022-11-07T10:04:27.340Z,2.10
2022-11-07T10:05:54.598Z,0.80
2022-11-07T10:07:03.417Z,0.20
2022-11-07T10:08:49.444Z,0.20
2022-11-07T10:10:31.590Z,0.30
2022-11-07T10:11:39.168Z,0.63
2022-11-07T10:13:05.105Z,0.60
2022-11-07T10:14:35.856Z,0.85
2022-11-07T10:15:48.493Z,0.38
2022-11-07T10:17:00.459Z,0.35
2022-11-07T10:18:35.090Z,0.50
2022-11-07T10:20:10.756Z,0.30
2022-11-07T10:21:39.283Z,1.30
2022-11-07T10:23:07.784Z,0.20
2022-11-07T10:24:37.770Z,0.73
2022-11-07T10:25:50.337Z,0.30
2022-11-07T10:26:53.038Z,0.38
2022-11-07T10:28:16.957Z,0.20
2022-11-07T10:29:20.811Z,1.00
2022-11-07T10:30:22.645Z,0.32
2022-11-07T10:31:28.234Z,1.30
2022-11-07T10:32:54.154Z,0.63
2022-11-07T10:34:02.619Z,0.63
2022-11-07T10:35:27.190Z,0.63
2022-11-07T10:36:31.577Z,0.57
2022-11-07T10:37:33.267Z,1.00
2022-11-07T10:38:35.737Z,1.08
2022-11-07T10:39:37.581Z,0.52
2022-11-07T10:40:41.699Z,0.68
2022-11-07T10:41:58.844Z,0.57
2022-11-07T10:43:03.326Z,1.27
2022-11-07T10:44:10.367Z,1.15
2022-11-07T10:45:14.480Z,0.93
2022-11-07T10:46:27.419Z,0.45
2022-11-07T10:47:29.158Z,0.75
2022-11-07T10:48:31.247Z,2.08
2022-11-07T10:49:33.173Z,1.30
2022-11-07T10:50:34.888Z,0.43
2022-11-07T10:51:42.118Z,0.55
2022-11-07T10:52:53.386Z,0.65
2022-11-07T10:53:55.077Z,2.08
2022-11-07T10:55:15.323Z,2.35
2022-11-07T10:56:19.587Z,1.85
2022-11-07T10:57:23.595Z,1.60
2022-11-07T10:58:30.239Z,0.55
2022-11-07T10:59:36.568Z,1.02
2022-11-07T11:00:41.440Z,1.60
2022-11-07T11:01:51.107Z,2.65
2022-11-07T11:02:54.315Z,2.17
2022-11-07T11:03:56.076Z,0.70
2022-11-07T11:05:03.215Z,1.45
2022-11-07T11:06:30.276Z,0.85
2022-11-07T11:07:37.657Z,1.58
2022-11-07T11:08:39.567Z,1.70
2022-11-07T11:09:56.762Z,1.27
2022-11-07T11:10:58.558Z,1.50
2022-11-07T11:12:13.836Z,1.60
2022-11-07T11:13:34.156Z,1.17
2022-11-07T11:14:35.827Z,1.05
2022-11-07T11:15:45.916Z,0.98
2022-11-07T11:16:53.012Z,1.27
2022-11-07T11:18:15.742Z,0.57
2022-11-07T11:19:22.586Z,2.75
2022-11-07T11:20:33.419Z,0.88
2022-11-07T11:21:46.857Z,2.38
2022-11-07T11:22:48.833Z,1.38
2022-11-07T11:23:52.172Z,1.42
2022-11-07T11:25:23.934Z,0.82
2022-11-07T11:26:30.462Z,1.02
2022-11-07T11:27:35.278Z,0.88
2022-11-07T11:28:44.352Z,0.60
2022-11-07T11:30:06.574Z,2.25
2022-11-07T11:31:37.125Z,2.08
2022-11-07T11:32:51.331Z,0.90
2022-11-07T11:34:18.868Z,1.40
2022-11-07T11:35:42.604Z,0.75
2022-11-07T11:37:02.862Z,0.70
2022-11-07T11:38:09.194Z,3.13
2022-11-07T11:39:28.666Z,0.95
2022-11-07T11:40:38.219Z,0.70
2022-11-07T11:41:50.357Z,2.08
2022-11-07T11:43:05.872Z,1.73
2022-11-07T11:44:16.556Z,1.50
2022-11-07T11:45:31.053Z,1.55
2022-11-07T11:46:54.618Z,3.22
2022-11-07T11:48:07.243Z,1.45
2022-11-07T11:49:18.030Z,0.63
2022-11-07T11:50:28.817Z,0.47
2022-11-07T11:52:02.458Z,1.10
2022-11-07T11:53:04.576Z,0.70
2022-11-07T11:54:15.217Z,0.50
2022-11-07T11:55:20.846Z,0.70
2022-11-07T11:56:46.475Z,1.95
2022-11-07T11:58:03.426Z,0.57
2022-11-07T11:59:26.310Z,0.95
2022-11-07T12:00:31.607Z,0.75
2022-11-07T12:01:55.122Z,0.93
2022-11-07T12:02:59.441Z,0.57
2022-11-07T12:04:38.695Z,0.95
2022-11-07T12:05:51.959Z,1.63
2022-11-07T12:07:06.178Z,1.60
2022-11-07T12:08:26.212Z,0.50
2022-11-07T12:09:36.533Z,1.00
2022-11-07T12:10:55.915Z,2.42
2022-11-07T12:12:08.986Z,0.63
2022-11-07T12:13:29.198Z,0.68
2022-11-07T12:14:30.889Z,1.23
2022-11-07T12:15:48.765Z,0.65
2022-11-07T12:17:08.864Z,1.88
2022-11-07T12:18:19.637Z,1.20
2022-11-07T12:19:50.723Z,0.98
2022-11-07T12:21:05.951Z,0.50
2022-11-07T12:22:26.064Z,0.60
2022-11-07T12:23:45.515Z,1.77
2022-11-07T12:24:52.909Z,0.47
2022-11-07T12:26:17.690Z,0.60
2022-11-07T12:27:51.874Z,1.05
2022-11-07T12:29:05.721Z,0.93
2022-11-07T12:30:15.952Z,0.50
2022-11-07T12:31:23.693Z,1.10
2022-11-07T12:32:53.929Z,2.40
2022-11-07T12:34:16.986Z,2.33
2022-11-07T12:35:48.673Z,1.67
2022-11-07T12:37:16.852Z,1.42
2022-11-07T12:38:33.738Z,0.80
2022-11-07T12:39:52.765Z,0.85
2022-11-07T12:41:25.030Z,0.95
2022-11-07T12:42:49.870Z,1.52
2022-11-07T12:44:20.513Z,1.70
2022-11-07T12:45:45.736Z,1.25
2022-11-07T12:46:59.877Z,1.33
2022-11-07T12:48:27.890Z,0.70
2022-11-07T12:49:59.713Z,0.82
2022-11-07T12:51:43.353Z,1.95
2022-11-07T12:53:33.473Z,1.02
2022-11-07T12:54:38.212Z,1.23
2022-11-07T12:55:48.150Z,2.55
2022-11-07T12:56:52.750Z,1.35
2022-11-07T12:57:55.416Z,1.33
2022-11-07T12:58:57.827Z,0.75
2022-11-07T13:00:31.906Z,0.85
2022-11-07T13:01:44.412Z,1.48
2022-11-07T13:02:58.056Z,1.58
2022-11-07T13:04:27.275Z,0.60
2022-11-07T13:05:50.366Z,1.83
2022-11-07T13:07:05.297Z,1.20
2022-11-07T13:08:19.401Z,1.88
2022-11-07T13:09:39.662Z,0.88
2022-11-07T13:11:00.108Z,1.55
2022-11-07T13:12:28.791Z,1.23
2022-11-07T13:13:53.489Z,1.52
2022-11-07T13:14:57.125Z,1.58
2022-11-07T13:16:22.385Z,0.90
2022-11-07T13:17:30.617Z,1.15
2022-11-07T13:18:32.347Z,0.73
2022-11-07T13:19:40.442Z,0.95
2022-11-07T13:20:42.224Z,0.73
2022-11-07T13:21:44.094Z,0.50
2022-11-07T13:22:46.721Z,1.58
2022-11-07T13:23:48.614Z,0.80
2022-11-07T13:25:17.276Z,0.80
2022-11-07T13:26:46.574Z,0.73
2022-11-07T13:27:55.237Z,0.65
2022-11-07T13:28:59.275Z,0.70
2022-11-07T13:30:13.013Z,0.82
2022-11-07T13:31:38.729Z,1.75
2022-11-07T13:32:42.999Z,1.05
2022-11-07T13:33:44.698Z,0.88
2022-11-07T13:34:55.829Z,0.85
2022-11-07T13:36:10.770Z,0.70
2022-11-07T13:37:20.125Z,0.80
2022-11-07T13:38:24.859Z,1.05
2022-11-07T13:39:27.583Z,1.60
2022-11-07T13:40:39.415Z,0.60
2022-11-07T13:41:44.671Z,0.50
2022-11-07T13:42:48.873Z,0.73
2022-11-07T13:43:57.816Z,0.47
2022-11-07T13:45:19.020Z,2.15
2022-11-07T13:46:32.147Z,0.55
2022-11-07T13:47:41.124Z,0.85
2022-11-07T13:48:51.890Z,0.90
2022-11-07T13:50:01.953Z,1.80
2022-11-07T13:51:19.246Z,0.82
2022-11-07T13:52:32.609Z,1.52
2022-11-07T13:53:55.826Z,1.38
2022-11-07T13:55:03.929Z,0.57
2022-11-07T13:56:14.660Z,0.30
2022-11-07T13:57:27.319Z,0.63
2022-11-07T13:58:31.711Z,1.75
2022-11-07T14:00:01.792Z,1.23
2022-11-07T14:01:13.989Z,0.50
2022-11-07T14:02:45.582Z,0.50
2022-11-07T14:03:47.454Z,1.00
2022-11-07T14:05:14.801Z,0.43
2022-11-07T14:06:17.016Z,0.68
2022-11-07T14:07:24.872Z,0.30
2022-11-07T14:08:35.579Z,0.88
2022-11-07T14:09:37.367Z,0.70
2022-11-07T14:10:43.157Z,0.50
2022-11-07T14:11:46.859Z,0.50
2022-11-07T14:12:50.620Z,0.75
2022-11-07T14:13:54.605Z,0.60
2022-11-07T14:14:59.070Z,0.95
2022-11-07T14:16:05.271Z,0.43
2022-11-07T14:17:13.411Z,0.22
2022-11-07T14:18:17.509Z,0.55
2022-11-07T14:19:27.930Z,0.85
2022-11-07T14:20:30.387Z,0.30
2022-11-07T14:21:36.877Z,0.63
2022-11-07T14:22:38.622Z,0.35
2022-11-07T14:23:44.707Z,0.50
2022-11-07T14:24:52.677Z,0.65
2022-11-07T14:26:16.307Z,0.47
2022-11-07T14:27:19.096Z,0.30
2022-11-07T14:28:20.987Z,0.40
2022-11-07T14:29:23.410Z,0.60
2022-11-07T14:30:28.049Z,0.40
2022-11-07T14:31:37.946Z,0.70
2022-11-07T14:32:47.600Z,0.73
2022-11-07T14:33:52.414Z,0.30
2022-11-07T14:34:55.203Z,0.20
2022-11-07T14:35:56.873Z,1.08
2022-11-07T14:37:01.693Z,0.40
2022-11-07T14:38:11.485Z,0.73
2022-11-07T14:39:15.817Z,0.60
2022-11-07T14:40:18.910Z,0.82
2022-11-07T14:41:22.598Z,1.23
2022-11-07T14:42:25.086Z,0.60
2022-11-07T14:43:28.465Z,0.60
2022-11-07T14:46:13.367Z,0.60
2022-11-07T14:47:19.355Z,1.10
2022-11-07T14:48:28.322Z,1.30